createdAt,value
2019-02-28T00:01:11.984Z,26.10
2019-02-28T00:03:42.743Z,27.65
2019-02-28T00:06:12.610Z,30.90
2019-02-28T00:08:41.788Z,27.73
2019-02-28T00:11:12.912Z,28.80
2019-02-28T00:13:41.394Z,30.97
2019-02-28T00:16:09.848Z,27.60
2019-02-28T00:18:38.568Z,29.15
2019-02-28T00:21:07.180Z,26.70
2019-02-28T00:23:35.699Z,27.87
2019-02-28T00:26:04.232Z,29.67
2019-02-28T00:28:33.731Z,31.82
2019-02-28T00:31:02.630Z,29.18
2019-02-28T00:33:31.650Z,29.98
2019-02-28T00:36:00.202Z,28.65
2019-02-28T00:38:29.837Z,29.80
2019-02-28T00:40:59.182Z,30.12
2019-02-28T00:43:27.966Z,30.45
2019-02-28T00:45:57.272Z,29.60
2019-02-28T00:48:26.033Z,28.55
2019-02-28T00:50:54.758Z,27.93
2019-02-28T00:53:23.519Z,27.00
2019-02-28T00:55:52.328Z,30.25
2019-02-28T00:58:21.178Z,29.77
2019-02-28T01:00:49.896Z,28.98
2019-02-28T01:03:18.411Z,28.87
2019-02-28T01:05:46.868Z,30.48
2019-02-28T01:08:15.660Z,29.37
2019-02-28T01:10:44.583Z,32.05
2019-02-28T01:13:13.302Z,31.42
2019-02-28T01:15:45.086Z,28.23
2019-02-28T01:18:12.280Z,34.05
2019-02-28T01:20:41.102Z,30.30
2019-02-28T01:23:09.599Z,27.98
2019-02-28T01:25:40.142Z,31.00
2019-02-28T01:28:10.640Z,29.37
2019-02-28T01:30:40.546Z,29.50
2019-02-28T01:33:10.177Z,32.03
2019-02-28T01:35:40.913Z,26.68
2019-02-28T01:38:09.592Z,30.88
2019-02-28T01:40:38.437Z,31.12
2019-02-28T01:43:06.957Z,28.83
2019-02-28T01:45:35.426Z,29.63
2019-02-28T01:48:06.040Z,29.80
2019-02-28T01:50:36.873Z,33.15
2019-02-28T01:53:05.686Z,31.17
2019-02-28T01:55:34.139Z,33.53
2019-02-28T01:58:02.630Z,30.48
2019-02-28T02:00:31.550Z,34.23
2019-02-28T02:02:59.993Z,29.37
2019-02-28T02:05:28.457Z,34.55
2019-02-28T02:07:57.185Z,37.20
2019-02-28T02:10:27.965Z,36.65
2019-02-28T02:13:03.103Z,36.63
2019-02-28T02:15:29.825Z,38.92
2019-02-28T02:17:59.289Z,35.98
2019-02-28T02:20:28.001Z,39.38
2019-02-28T02:22:56.487Z,37.03
2019-02-28T02:25:25.017Z,40.67
2019-02-28T02:27:54.045Z,41.50
2019-02-28T02:30:24.401Z,38.95
2019-02-28T02:32:52.860Z,40.10
2019-02-28T02:35:21.723Z,40.00
2019-02-28T02:37:50.556Z,40.85
2019-02-28T02:40:23.034Z,38.10
2019-02-28T02:42:50.073Z,42.20
2019-02-28T02:45:19.121Z,38.65
2019-02-28T02:47:47.624Z,39.65
2019-02-28T02:50:16.301Z,37.93
2019-02-28T02:52:45.386Z,39.18
2019-02-28T02:55:14.463Z,40.38
2019-02-28T02:57:43.210Z,38.90
2019-02-28T03:00:21.093Z,39.42
2019-02-28T03:02:54.793Z,41.00
2019-02-28T03:05:23.580Z,43.13
2019-02-28T03:07:59.268Z,41.15
2019-02-28T03:10:22.889Z,40.50
2019-02-28T03:12:51.647Z,43.15
2019-02-28T03:15:26.987Z,41.00
2019-02-28T03:17:51.380Z,40.98
2019-02-28T03:20:19.838Z,40.95
2019-02-28T03:22:48.580Z,42.03
2019-02-28T03:25:20.141Z,42.48
2019-02-28T03:27:55.061Z,38.05
2019-02-28T03:30:27.788Z,39.18
2019-02-28T03:32:50.715Z,41.00
2019-02-28T03:35:19.336Z,42.40
2019-02-28T03:37:49.157Z,40.15
2019-02-28T03:40:18.083Z,38.98
2019-02-28T03:42:46.549Z,39.50
2019-02-28T03:45:18.614Z,40.50
2019-02-28T03:47:47.174Z,38.55
2019-02-28T03:50:16.275Z,43.13
2019-02-28T03:52:46.704Z,42.08
2019-02-28T03:55:15.510Z,40.90
2019-02-28T03:57:44.027Z,39.45
2019-02-28T04:00:32.619Z,37.73
2019-02-28T04:02:58.716Z,40.88
2019-02-28T04:05:28.100Z,39.85
2019-02-28T04:07:57.101Z,42.75
2019-02-28T04:10:25.646Z,43.08
2019-02-28T04:12:55.412Z,40.75
2019-02-28T04:15:25.075Z,38.92
2019-02-28T04:17:53.606Z,42.13
2019-02-28T04:20:22.381Z,38.53
2019-02-28T04:22:51.198Z,42.10
2019-02-28T04:25:24.063Z,42.05
2019-02-28T04:27:50.139Z,43.48
2019-02-28T04:30:18.877Z,42.45
2019-02-28T04:32:47.638Z,42.08
2019-02-28T04:35:16.137Z,40.83
2019-02-28T04:37:47.096Z,41.80
2019-02-28T04:40:15.447Z,44.03
2019-02-28T04:42:44.331Z,43.30
2019-02-28T04:45:14.149Z,44.58
2019-02-28T04:47:43.041Z,41.25
2019-02-28T04:50:12.521Z,41.28
2019-02-28T04:52:46.839Z,41.98
2019-02-28T04:55:13.134Z,42.78
2019-02-28T04:57:41.870Z,43.20
2019-02-28T05:00:13.402Z,44.18
2019-02-28T05:02:43.442Z,42.05
2019-02-28T05:05:13.610Z,41.60
2019-02-28T05:07:42.354Z,41.63
2019-02-28T05:10:11.767Z,41.80
2019-02-28T05:12:41.036Z,43.58
2019-02-28T05:15:12.796Z,42.53
2019-02-28T05:17:41.520Z,39.92
2019-02-28T05:20:12.183Z,44.18
2019-02-28T05:22:41.227Z,43.98
2019-02-28T05:25:11.366Z,46.95
2019-02-28T05:27:40.056Z,44.38
2019-02-28T05:30:19.322Z,42.83
2019-02-28T05:32:49.535Z,44.63
2019-02-28T05:35:18.258Z,44.48
2019-02-28T05:37:48.438Z,41.73
2019-02-28T05:40:17.088Z,42.35
2019-02-28T05:42:45.812Z,40.85
2019-02-28T05:45:15.673Z,39.13
2019-02-28T05:47:47.382Z,41.60
2019-02-28T05:50:17.295Z,42.38
2019-02-28T05:52:46.423Z,38.42
2019-02-28T05:55:15.224Z,47.55
2019-02-28T05:57:44.904Z,44.80
2019-02-28T06:00:17.046Z,43.20
2019-02-28T06:02:45.557Z,41.75
2019-02-28T06:05:14.090Z,44.20
2019-02-28T06:07:42.726Z,43.78
2019-02-28T06:10:15.088Z,44.48
2019-02-28T06:12:44.812Z,44.98
2019-02-28T06:15:15.201Z,43.30
2019-02-28T06:17:43.995Z,42.40
2019-02-28T06:20:16.374Z,42.70
2019-02-28T06:22:45.202Z,40.33
2019-02-28T06:25:22.816Z,42.25
2019-02-28T06:27:49.007Z,43.08
2019-02-28T06:30:17.047Z,41.30
2019-02-28T06:32:45.804Z,37.05
2019-02-28T06:35:18.618Z,43.38
2019-02-28T06:37:46.628Z,41.70
2019-02-28T06:40:15.943Z,40.55
2019-02-28T06:42:46.810Z,41.30
2019-02-28T06:45:19.028Z,42.90
2019-02-28T06:47:50.170Z,42.53
2019-02-28T06:50:18.873Z,43.75
2019-02-28T06:52:47.453Z,41.75
2019-02-28T06:55:20.807Z,44.58
2019-02-28T06:57:49.324Z,40.80
2019-02-28T07:00:18.208Z,43.33
2019-02-28T07:02:56.924Z,43.95
2019-02-28T07:05:17.861Z,42.48
2019-02-28T07:07:49.063Z,42.93
2019-02-28T07:10:24.048Z,45.03
2019-02-28T07:12:55.343Z,45.33
2019-02-28T07:15:26.747Z,44.00
2019-02-28T07:17:55.939Z,44.85
2019-02-28T07:20:24.865Z,45.33
2019-02-28T07:22:55.611Z,42.27
2019-02-28T07:25:24.097Z,43.83
2019-02-28T07:27:52.823Z,41.40
2019-02-28T07:30:22.156Z,40.70
2019-02-28T07:32:57.092Z,45.55
2019-02-28T07:35:25.599Z,42.98
2019-02-28T07:37:54.608Z,43.85
2019-02-28T07:40:23.172Z,43.00
2019-02-28T07:42:51.715Z,44.60
2019-02-28T07:45:20.165Z,42.43
2019-02-28T07:47:52.710Z,41.77
2019-02-28T07:50:19.171Z,44.20
2019-02-28T07:52:47.950Z,41.65
2019-02-28T07:55:18.873Z,41.25
2019-02-28T07:57:56.243Z,42.33
2019-02-28T08:00:23.307Z,42.78
2019-02-28T08:02:52.024Z,42.33
2019-02-28T08:05:20.795Z,42.90
2019-02-28T08:07:52.690Z,38.92
2019-02-28T08:10:26.339Z,39.42
2019-02-28T08:12:59.339Z,42.30
2019-02-28T08:15:29.913Z,42.08
2019-02-28T08:17:58.870Z,40.88
2019-02-28T08:20:30.652Z,40.20
2019-02-28T08:23:00.612Z,41.88
2019-02-28T08:25:29.412Z,43.83
2019-02-28T08:27:59.920Z,41.77
2019-02-28T08:30:32.375Z,41.25
2019-02-28T08:33:03.624Z,41.13
2019-02-28T08:35:34.860Z,38.53
2019-02-28T08:38:06.703Z,40.55
2019-02-28T08:40:36.633Z,37.15
2019-02-28T08:43:05.248Z,37.95
2019-02-28T08:45:34.510Z,39.27
2019-02-28T08:48:03.579Z,39.70
2019-02-28T08:50:32.441Z,39.45
2019-02-28T08:53:02.806Z,38.67
2019-02-28T08:55:31.605Z,38.10
2019-02-28T08:58:05.379Z,39.00
2019-02-28T09:00:33.056Z,38.45
2019-02-28T09:03:01.686Z,35.98
2019-02-28T09:05:30.510Z,41.33
2019-02-28T09:07:59.470Z,37.25
2019-02-28T09:10:30.147Z,41.88
2019-02-28T09:12:58.951Z,41.13
2019-02-28T09:15:31.150Z,40.08
2019-02-28T09:17:59.425Z,38.33
2019-02-28T09:20:28.327Z,39.85
2019-02-28T09:23:01.543Z,39.03
2019-02-28T09:25:27.153Z,40.48
2019-02-28T09:27:56.321Z,38.73
2019-02-28T09:30:33.999Z,41.00
2019-02-28T09:33:05.278Z,40.25
2019-02-28T09:35:34.140Z,39.73
2019-02-28T09:38:06.421Z,40.40
2019-02-28T09:40:33.044Z,41.90
2019-02-28T09:43:01.832Z,40.70
2019-02-28T09:45:31.730Z,42.60
2019-02-28T09:48:01.856Z,41.50
2019-02-28T09:50:32.814Z,40.60
2019-02-28T09:53:00.929Z,43.90
2019-02-28T09:55:34.317Z,41.15
2019-02-28T09:58:00.530Z,42.23
2019-02-28T10:00:30.203Z,42.55
2019-02-28T10:03:01.374Z,40.17
2019-02-28T10:05:30.128Z,40.05
2019-02-28T10:08:02.836Z,40.60
2019-02-28T10:10:30.928Z,41.23
2019-02-28T10:12:59.868Z,40.20
2019-02-28T10:15:28.377Z,40.08
2019-02-28T10:18:00.751Z,40.08
2019-02-28T10:20:33.170Z,39.65
2019-02-28T10:23:01.622Z,39.38
2019-02-28T10:25:30.144Z,38.13
2019-02-28T10:28:02.654Z,37.95
2019-02-28T10:30:32.126Z,35.45
2019-02-28T10:33:00.404Z,36.35
2019-02-28T10:35:28.881Z,35.23
2019-02-28T10:37:58.803Z,36.05
2019-02-28T10:40:33.120Z,35.35
2019-02-28T10:43:01.594Z,35.33
2019-02-28T10:45:30.193Z,35.25
2019-02-28T10:48:02.911Z,35.15
2019-02-28T10:50:33.193Z,35.45
2019-02-28T10:53:04.053Z,36.45
2019-02-28T10:55:31.320Z,34.23
2019-02-28T10:57:59.780Z,34.92
2019-02-28T11:00:33.689Z,34.25
2019-02-28T11:03:02.654Z,32.67
2019-02-28T11:05:41.358Z,32.17
2019-02-28T11:08:17.431Z,34.45
2019-02-28T11:10:48.134Z,34.95
2019-02-28T11:13:19.916Z,33.50
2019-02-28T11:15:49.541Z,32.35
2019-02-28T11:18:18.534Z,35.05
2019-02-28T11:20:47.504Z,34.65
2019-02-28T11:23:16.636Z,35.68
2019-02-28T11:25:45.638Z,36.93
2019-02-28T11:28:14.636Z,35.85
2019-02-28T11:30:45.658Z,38.95
2019-02-28T11:33:17.672Z,39.88
2019-02-28T11:35:46.219Z,37.95
2019-02-28T11:38:20.469Z,41.18
2019-02-28T11:40:56.736Z,39.15
2019-02-28T11:43:18.452Z,43.80
2019-02-28T11:45:48.061Z,43.87
2019-02-28T11:48:23.009Z,45.92
2019-02-28T11:50:51.841Z,46.83
2019-02-28T11:53:20.653Z,47.53
2019-02-28T11:55:53.323Z,50.23
2019-02-28T11:58:21.395Z,49.63
2019-02-28T12:00:50.181Z,49.65
2019-02-28T12:03:20.755Z,45.70
2019-02-28T12:05:50.632Z,48.95
2019-02-28T12:08:19.736Z,47.30
2019-02-28T12:10:48.204Z,48.28
2019-02-28T12:13:19.657Z,45.25
2019-02-28T12:15:47.442Z,50.65
2019-02-28T12:18:15.944Z,45.23
2019-02-28T12:20:44.455Z,42.88
2019-02-28T12:23:15.350Z,42.90
2019-02-28T12:25:44.079Z,45.08
2019-02-28T12:28:16.547Z,40.30
2019-02-28T12:30:45.073Z,39.92
2019-02-28T12:33:15.357Z,40.35
2019-02-28T12:35:44.222Z,42.15
2019-02-28T12:38:12.947Z,38.42
2019-02-28T12:40:45.636Z,38.33
2019-02-28T12:43:16.713Z,39.88
2019-02-28T12:45:48.398Z,37.00
2019-02-28T12:48:16.953Z,36.63
2019-02-28T12:50:45.822Z,35.30
2019-02-28T12:53:14.285Z,33.10
2019-02-28T12:55:42.945Z,34.50
2019-02-28T12:58:11.781Z,33.48
2019-02-28T13:00:43.635Z,30.68
2019-02-28T13:03:19.230Z,30.40
2019-02-28T13:05:47.842Z,30.23
2019-02-28T13:08:15.335Z,29.75
2019-02-28T13:10:44.247Z,26.57
2019-02-28T13:13:12.778Z,28.45
2019-02-28T13:15:45.481Z,23.55
2019-02-28T13:18:12.063Z,25.50
2019-02-28T13:20:41.128Z,24.90
2019-02-28T13:23:09.689Z,23.32
2019-02-28T13:25:38.193Z,21.97
2019-02-28T13:28:07.790Z,22.58
2019-02-28T13:30:40.047Z,21.80
2019-02-28T13:33:10.937Z,19.87
2019-02-28T13:35:47.073Z,18.85
2019-02-28T13:38:18.104Z,17.12
2019-02-28T13:40:45.013Z,19.82
2019-02-28T13:43:19.874Z,17.30
2019-02-28T13:45:45.721Z,16.00
2019-02-28T13:48:14.566Z,14.43
2019-02-28T13:50:43.181Z,15.63
2019-02-28T13:53:19.134Z,13.58
2019-02-28T13:55:42.207Z,14.25
2019-02-28T13:58:10.884Z,11.90
2019-02-28T14:00:45.854Z,12.30
2019-02-28T14:03:17.097Z,10.68
2019-02-28T14:05:45.825Z,11.53
2019-02-28T14:08:14.381Z,11.38
2019-02-28T14:10:43.267Z,11.97
2019-02-28T14:13:12.139Z,10.63
2019-02-28T14:15:48.038Z,10.35
2019-02-28T14:18:16.154Z,8.85
2019-02-28T14:20:44.739Z,7.58
2019-02-28T14:23:13.455Z,7.03
2019-02-28T14:25:41.947Z,7.55
2019-02-28T14:28:11.134Z,6.30
2019-02-28T14:30:40.230Z,6.08
2019-02-28T14:33:09.510Z,6.35
2019-02-28T14:35:39.615Z,6.05
2019-02-28T14:38:08.512Z,6.08
2019-02-28T14:40:36.989Z,7.42
2019-02-28T14:43:08.096Z,6.62
2019-02-28T14:45:43.781Z,8.93
2019-02-28T14:48:12.676Z,6.53
2019-02-28T14:50:41.642Z,6.28
2019-02-28T14:53:14.399Z,5.83
2019-02-28T14:55:43.289Z,5.30
2019-02-28T14:58:11.720Z,6.83
2019-02-28T15:00:42.307Z,6.58
2019-02-28T15:03:10.540Z,6.30
2019-02-28T15:05:41.491Z,6.22
2019-02-28T15:08:11.988Z,6.92
2019-02-28T15:10:41.167Z,4.92
2019-02-28T15:13:09.972Z,5.78
2019-02-28T15:15:38.468Z,5.67
2019-02-28T15:18:11.048Z,5.90
2019-02-28T15:20:38.818Z,4.42
2019-02-28T15:23:09.367Z,4.72
2019-02-28T15:25:38.085Z,4.33
2019-02-28T15:28:06.689Z,3.80
2019-02-28T15:30:45.874Z,4.22
2019-02-28T15:33:15.584Z,5.17
2019-02-28T15:35:46.496Z,6.00
2019-02-28T15:38:16.889Z,5.17
2019-02-28T15:40:47.052Z,4.12
2019-02-28T15:43:18.179Z,5.17
2019-02-28T15:45:47.077Z,5.10
2019-02-28T15:48:18.821Z,2.83
2019-02-28T15:50:51.418Z,4.00
2019-02-28T15:53:17.719Z,3.33
2019-02-28T15:55:49.786Z,3.80
2019-02-28T15:58:18.573Z,3.50
2019-02-28T16:00:47.405Z,3.90
2019-02-28T16:03:16.781Z,3.77
2019-02-28T16:05:48.569Z,3.67
2019-02-28T16:08:17.085Z,5.35
2019-02-28T16:10:53.309Z,3.80
2019-02-28T16:13:16.487Z,5.65
2019-02-28T16:15:46.287Z,3.58
2019-02-28T16:18:15.530Z,3.85
2019-02-28T16:20:44.458Z,3.65
2019-02-28T16:23:13.284Z,3.47
2019-02-28T16:25:42.067Z,4.08
2019-02-28T16:28:10.879Z,4.45
2019-02-28T16:30:39.938Z,4.33
2019-02-28T16:33:08.845Z,2.90
2019-02-28T16:35:38.937Z,4.55
2019-02-28T16:38:10.100Z,2.62
2019-02-28T16:40:39.812Z,2.50
2019-02-28T16:43:08.271Z,2.35
2019-02-28T16:45:40.875Z,3.47
2019-02-28T16:48:09.266Z,3.45
2019-02-28T16:50:39.456Z,18.62
2019-02-28T16:53:11.601Z,4.10
2019-02-28T16:55:38.786Z,2.90
2019-02-28T16:58:07.394Z,2.67
2019-02-28T17:00:36.023Z,3.40
2019-02-28T17:03:07.269Z,2.55
2019-02-28T17:05:35.965Z,2.67
2019-02-28T17:08:04.477Z,4.08
2019-02-28T17:10:43.371Z,2.65
2019-02-28T17:13:13.014Z,2.67
2019-02-28T17:15:43.411Z,3.15
2019-02-28T17:18:26.232Z,2.40
2019-02-28T17:20:57.384Z,2.58
2019-02-28T17:23:25.853Z,3.52
2019-02-28T17:25:56.474Z,4.40
2019-02-28T17:28:34.785Z,4.12
2019-02-28T17:31:04.918Z,3.80
2019-02-28T17:33:33.380Z,4.53
2019-02-28T17:36:01.834Z,7.05
2019-02-28T17:38:32.258Z,4.90
2019-02-28T17:41:01.861Z,4.47
2019-02-28T17:43:31.228Z,4.67
2019-02-28T17:45:59.762Z,4.72
2019-02-28T17:48:52.620Z,4.78
2019-02-28T17:51:30.839Z,5.60
2019-02-28T17:54:07.386Z,4.60
2019-02-28T17:56:45.913Z,4.75
2019-02-28T17:59:35.967Z,5.47
2019-02-28T18:02:38.303Z,5.50
2019-02-28T18:05:30.019Z,5.28
2019-02-28T18:08:10.056Z,4.95
2019-02-28T18:10:44.403Z,5.55
2019-02-28T18:13:31.493Z,5.15
2019-02-28T18:16:37.915Z,6.00
2019-02-28T18:19:36.913Z,5.85
2019-02-28T18:22:40.961Z,6.45
2019-02-28T18:25:24.412Z,6.78
2019-02-28T18:28:08.725Z,5.78
2019-02-28T18:31:03.264Z,5.60
2019-02-28T18:33:32.132Z,5.70
2019-02-28T18:36:00.584Z,5.83
2019-02-28T18:38:29.133Z,6.37
2019-02-28T18:40:59.675Z,6.42
2019-02-28T18:43:27.992Z,6.25
2019-02-28T18:45:56.892Z,6.22
2019-02-28T18:48:26.551Z,5.62
2019-02-28T18:50:57.030Z,5.67
2019-02-28T18:53:25.526Z,5.95
2019-02-28T18:55:54.997Z,6.37
2019-02-28T18:58:23.482Z,6.22
2019-02-28T19:00:52.287Z,6.62
2019-02-28T19:03:21.170Z,5.75
2019-02-28T19:05:49.930Z,5.90
2019-02-28T19:08:21.315Z,5.50
2019-02-28T19:10:50.047Z,5.78
2019-02-28T19:13:18.838Z,6.10
2019-02-28T19:15:47.368Z,5.78
2019-02-28T19:18:15.879Z,6.30
2019-02-28T19:20:44.824Z,5.72
2019-02-28T19:23:13.268Z,5.72
2019-02-28T19:25:41.720Z,6.55
2019-02-28T19:28:10.184Z,6.00
2019-02-28T19:30:38.892Z,7.95
2019-02-28T19:33:08.864Z,6.50
2019-02-28T19:35:37.437Z,6.85
2019-02-28T19:38:06.230Z,6.67
2019-02-28T19:40:34.749Z,6.72
2019-02-28T19:43:03.232Z,7.17
2019-02-28T19:45:35.059Z,6.15
2019-02-28T19:48:03.837Z,5.90
2019-02-28T19:50:35.170Z,6.42
2019-02-28T19:53:03.913Z,6.42
2019-02-28T19:55:32.364Z,7.85
2019-02-28T19:58:00.835Z,7.72
2019-02-28T20:00:29.365Z,7.92
2019-02-28T20:02:57.910Z,9.80
2019-02-28T20:05:26.719Z,9.18
2019-02-28T20:07:56.317Z,9.53
2019-02-28T20:10:25.458Z,9.43
2019-02-28T20:12:54.352Z,9.03
2019-02-28T20:15:24.661Z,9.45
2019-02-28T20:17:53.182Z,9.23
2019-02-28T20:20:27.389Z,8.50
2019-02-28T20:22:56.371Z,11.63
2019-02-28T20:25:25.158Z,12.40
2019-02-28T20:27:53.682Z,14.35
2019-02-28T20:30:24.360Z,13.85
2019-02-28T20:32:53.351Z,11.90
2019-02-28T20:35:26.628Z,18.12
2019-02-28T20:37:53.944Z,11.68
2019-02-28T20:40:28.054Z,9.88
2019-02-28T20:42:58.409Z,13.03
2019-02-28T20:45:26.871Z,13.95
2019-02-28T20:47:57.386Z,11.73
2019-02-28T20:50:37.552Z,9.73
2019-02-28T20:53:06.089Z,11.48
2019-02-28T20:55:34.562Z,12.75
2019-02-28T20:58:03.070Z,11.95
2019-02-28T21:00:31.994Z,12.37
2019-02-28T21:03:00.831Z,12.43
2019-02-28T21:05:29.367Z,12.58
2019-02-28T21:07:57.855Z,15.08
2019-02-28T21:10:26.451Z,12.23
2019-02-28T21:12:55.804Z,13.28
2019-02-28T21:15:24.889Z,16.57
2019-02-28T21:17:53.513Z,13.93
2019-02-28T21:20:21.965Z,17.82
2019-02-28T21:22:52.069Z,14.93
2019-02-28T21:25:20.925Z,13.25
2019-02-28T21:27:49.401Z,12.63
2019-02-28T21:30:25.498Z,13.60
2019-02-28T21:32:53.985Z,13.10
2019-02-28T21:35:23.139Z,11.38
2019-02-28T21:37:51.981Z,11.35
2019-02-28T21:40:21.551Z,12.18
2019-02-28T21:42:51.504Z,12.53
2019-02-28T21:45:25.543Z,13.28
2019-02-28T21:47:54.735Z,13.38
2019-02-28T21:50:26.695Z,11.93
2019-02-28T21:52:55.413Z,11.70
2019-02-28T21:55:24.288Z,11.78
2019-02-28T21:57:53.874Z,14.68
2019-02-28T22:00:27.277Z,12.10
2019-02-28T22:02:57.554Z,10.58
2019-02-28T22:05:26.404Z,9.68
2019-02-28T22:07:55.219Z,10.30
2019-02-28T22:10:23.869Z,10.80
2019-02-28T22:12:55.605Z,16.05
2019-02-28T22:15:25.559Z,11.12
2019-02-28T22:17:54.268Z,10.13
2019-02-28T22:20:25.351Z,12.35
2019-02-28T22:22:55.156Z,9.65
2019-02-28T22:25:23.881Z,13.22
2019-02-28T22:27:52.342Z,11.63
2019-02-28T22:30:29.152Z,9.35
2019-02-28T22:32:59.473Z,10.48
2019-02-28T22:35:29.878Z,10.38
2019-02-28T22:37:58.367Z,10.03
2019-02-28T22:40:26.886Z,9.45
2019-02-28T22:42:55.781Z,11.05
2019-02-28T22:45:24.534Z,9.95
2019-02-28T22:47:54.528Z,9.28
2019-02-28T22:50:23.345Z,10.10
2019-02-28T22:52:54.354Z,10.28
2019-02-28T22:55:23.661Z,9.98
2019-02-28T22:57:53.248Z,10.67
2019-02-28T23:01:06.208Z,11.00
2019-02-28T23:03:35.815Z,12.00
2019-02-28T23:06:12.528Z,12.65
2019-02-28T23:08:45.534Z,11.60
2019-02-28T23:11:14.240Z,12.73
2019-02-28T23:13:45.984Z,10.75
2019-02-28T23:16:14.463Z,11.03
2019-02-28T23:18:45.009Z,11.70
2019-02-28T23:21:13.742Z,11.15
2019-02-28T23:23:44.938Z,12.43
2019-02-28T23:26:13.928Z,11.70
2019-02-28T23:28:47.268Z,12.10
2019-02-28T23:31:42.048Z,12.85
2019-02-28T23:34:15.954Z,12.60
2019-02-28T23:36:44.462Z,13.58
2019-02-28T23:39:13.116Z,13.13
2019-02-28T23:41:41.748Z,12.45
2019-02-28T23:44:10.588Z,12.93
2019-02-28T23:46:39.359Z,15.03
2019-02-28T23:49:07.906Z,13.32
2019-02-28T23:51:36.731Z,14.00
2019-02-28T23:54:06.450Z,12.15
2019-02-28T23:56:35.300Z,13.78
2019-02-28T23:59:03.820Z,13.32
